Time;durP1;ratioP1;P1;durP2;ratioP2;P2;SDS_P1;SDS_P2;PMS_P1;PMS_P2;Temp;Humidity;BMP_temperature;BMP_pressure;BME280_temperature;BME280_humidity;BME280_pressure;Samples;Min_cycle;Max_cycle;Signal;HPM_P1;HPM_P2
2022/05/27 00:02:20;;;;;;;7.03;5.10;;;;;;;15.24;100.00;91493.63;5115489;28;20027;-60
2022/05/27 00:04:46;;;;;;;10.35;5.28;;;;;;;15.22;100.00;91495.84;5115431;28;20020;-60
2022/05/27 00:07:11;;;;;;;6.78;4.80;;;;;;;15.14;100.00;91496.63;5115423;28;20028;-60
2022/05/27 00:09:37;;;;;;;8.57;5.65;;;;;;;15.07;100.00;91498.25;5115355;28;20554;-60
2022/05/27 00:12:03;;;;;;;12.18;5.43;;;;;;;15.10;100.00;91490.34;5115150;28;20063;-60
2022/05/27 00:14:28;;;;;;;7.63;4.97;;;;;;;15.02;100.00;91490.41;5115151;28;20020;-60
2022/05/27 00:16:53;;;;;;;8.75;5.53;;;;;;;14.94;100.00;91497.34;5115166;28;20502;-60
2022/05/27 00:19:19;;;;;;;9.00;5.43;;;;;;;14.88;100.00;91487.94;5115126;28;20027;-60
2022/05/27 00:21:44;;;;;;;11.73;5.68;;;;;;;14.86;100.00;91490.16;5115124;28;20028;-60
2022/05/27 00:24:10;;;;;;;10.15;5.57;;;;;;;14.80;100.00;91491.41;5115329;28;20457;-60
2022/05/27 00:26:35;;;;;;;11.40;5.32;;;;;;;14.73;100.00;91491.13;5115097;28;20479;-60
2022/05/27 00:29:01;;;;;;;8.20;4.90;;;;;;;14.58;100.00;91479.81;5114921;28;20028;-60
2022/05/27 00:31:26;;;;;;;9.85;5.45;;;;;;;14.62;100.00;91483.44;5096313;28;20022;-61
2022/05/27 00:33:51;;;;;;;9.85;5.38;;;;;;;14.66;100.00;91481.69;5114904;28;20477;-60
2022/05/27 00:36:17;;;;;;;7.95;5.00;;;;;;;14.63;100.00;91478.88;5115123;28;20446;-60
2022/05/27 00:38:42;;;;;;;9.77;5.45;;;;;;;14.62;100.00;91470.03;5115007;28;20485;-60
2022/05/27 00:41:11;;;;;;;13.18;4.90;;;;;;;14.57;100.00;91459.50;5114711;28;20546;-60
2022/05/27 00:43:38;;;;;;;10.02;5.10;;;;;;;14.66;100.00;91465.63;5114899;28;20066;-60
2022/05/27 00:46:13;;;;;;;8.63;5.18;;;;;;;14.72;100.00;91465.47;5115422;28;20499;-60
2022/05/27 00:48:39;;;;;;;8.63;4.53;;;;;;;14.66;100.00;91462.94;5114598;28;20059;-60
2022/05/27 00:51:11;;;;;;;11.68;4.80;;;;;;;14.61;100.00;91457.75;5114481;28;20066;-60
2022/05/27 00:53:43;;;;;;;5.82;5.03;;;;;;;14.64;100.00;91467.03;5114570;28;20531;-60
2022/05/27 00:56:11;;;;;;;6.57;4.50;;;;;;;14.71;100.00;91459.31;5114563;28;20488;-60
2022/05/27 00:58:55;;;;;;;6.63;4.28;;;;;;;14.72;100.00;91457.44;5114351;28;20114;-60
2022/05/27 01:01:20;;;;;;;7.75;4.88;;;;;;;14.71;100.00;91456.63;5114263;28;20095;-60
2022/05/27 01:03:47;;;;;;;7.10;4.63;;;;;;;14.64;100.00;91453.66;5113841;27;20131;-60
2022/05/27 01:06:12;;;;;;;6.25;4.13;;;;;;;14.59;100.00;91451.16;5114470;28;20457;-60
2022/05/27 01:08:38;;;;;;;12.52;4.65;;;;;;;14.60;100.00;91456.19;5114056;28;20055;-60
2022/05/27 01:11:13;;;;;;;6.72;4.90;;;;;;;14.60;100.00;91460.75;5113998;28;20028;-60
2022/05/27 01:14:03;;;;;;;7.80;4.85;;;;;;;14.66;100.00;91454.13;5114143;28;20039;-60
2022/05/27 01:16:38;;;;;;;9.25;5.40;;;;;;;14.63;100.00;91447.50;5114027;28;20027;-60
2022/05/27 01:22:54;;;;;;;7.53;4.65;;;;;;;14.55;100.00;91455.59;5114006;28;20027;-60
2022/05/27 01:25:44;;;;;;;7.20;4.10;;;;;;;14.52;100.00;91446.31;5104514;28;20040;-60
2022/05/27 01:28:36;;;;;;;6.35;4.70;;;;;;;14.39;100.00;91452.59;5113787;28;20461;-60
2022/05/27 01:31:03;;;;;;;7.25;4.93;;;;;;;14.25;100.00;91446.66;5113649;28;20019;-59
2022/05/27 01:33:47;;;;;;;7.45;4.25;;;;;;;14.22;100.00;91447.28;5113639;28;20130;-59
2022/05/27 01:36:30;;;;;;;6.93;4.70;;;;;;;14.17;100.00;91448.22;5113752;28;20107;-59
2022/05/27 01:39:01;;;;;;;7.63;5.03;;;;;;;13.99;100.00;91452.03;5113595;28;20032;-59
2022/05/27 01:41:35;;;;;;;5.40;4.50;;;;;;;13.89;100.00;91452.34;5113423;28;20023;-59
2022/05/27 01:44:07;;;;;;;6.97;4.90;;;;;;;13.78;100.00;91457.22;5113512;28;20028;-59
2022/05/27 01:46:41;;;;;;;7.15;4.72;;;;;;;13.72;100.00;91453.91;5113524;28;20035;-59
2022/05/27 01:49:25;;;;;;;;;;;;;;;13.64;100.00;91449.34;5113850;28;20032;-59
2022/05/27 01:52:02;;;;;;;9.95;5.82;;;;;;;13.53;100.00;91455.31;5113295;28;19908;-59
2022/05/27 01:54:45;;;;;;;7.35;4.75;;;;;;;13.48;100.00;91459.72;5113312;28;20094;-59
2022/05/27 01:57:36;;;;;;;10.45;4.85;;;;;;;13.46;100.00;91461.13;5113273;28;20485;-59
2022/05/27 02:00:22;;;;;;;7.03;4.82;;;;;;;13.43;100.00;91459.88;5113122;28;20036;-59
2022/05/27 02:02:59;;;;;;;9.05;5.07;;;;;;;13.40;100.00;91465.03;5113055;28;20239;-59
2022/05/27 02:05:37;;;;;;;5.88;3.50;;;;;;;13.30;100.00;91463.47;5113085;28;20024;-59
2022/05/27 02:08:09;;;;;;;6.50;4.40;;;;;;;13.14;100.00;91443.59;5113356;28;20124;-59
2022/05/27 02:10:47;;;;;;;8.68;4.55;;;;;;;13.21;100.00;91457.31;5112957;28;20031;-59
2022/05/27 02:13:27;;;;;;;7.70;3.80;;;;;;;13.22;100.00;91461.53;5113233;28;20031;-59
2022/05/27 02:15:54;;;;;;;8.75;4.43;;;;;;;13.22;100.00;91458.88;5112089;28;20031;-60
2022/05/27 02:18:39;;;;;;;6.65;4.55;;;;;;;13.27;100.00;91453.41;5112888;28;20027;-60
2022/05/27 02:21:10;;;;;;;6.78;4.00;;;;;;;13.25;100.00;91450.22;5112608;28;20020;-59
2022/05/27 02:23:42;;;;;;;7.20;4.72;;;;;;;13.30;100.00;91455.44;5112692;28;20039;-59
2022/05/27 02:26:20;;;;;;;6.20;3.38;;;;;;;13.44;100.00;91458.00;5112676;28;20027;-60
2022/05/27 02:28:55;;;;;;;6.63;4.03;;;;;;;13.47;100.00;91460.81;5112555;28;20068;-60
2022/05/27 02:31:25;;;;;;;6.10;3.88;;;;;;;13.45;100.00;91455.00;5112763;28;20495;-60
2022/05/27 02:36:54;;;;;;;5.78;3.72;;;;;;;13.43;100.00;91443.84;5112705;28;20027;-59
2022/05/27 02:39:19;;;;;;;4.97;3.42;;;;;;;13.54;100.00;91464.91;5112472;28;20031;-59
2022/05/27 02:42:07;;;;;;;6.35;3.47;;;;;;;13.49;100.00;91463.16;5112108;28;20076;-59
2022/05/27 02:44:53;;;;;;;3.05;2.53;;;;;;;13.40;100.00;91463.16;5112333;28;20032;-59
2022/05/27 02:47:31;;;;;;;3.30;2.63;;;;;;;13.40;100.00;91465.81;5112521;28;20092;-59
2022/05/27 02:50:09;;;;;;;2.92;2.25;;;;;;;13.39;100.00;91458.13;5112142;28;20035;-59
2022/05/27 02:52:34;;;;;;;3.10;2.70;;;;;;;13.35;100.00;91459.84;5112204;28;20031;-59
2022/05/27 02:55:09;;;;;;;3.65;2.40;;;;;;;13.15;100.00;91461.19;5112123;28;20027;-59
2022/05/27 02:57:41;;;;;;;3.80;3.03;;;;;;;13.14;100.00;91457.75;5112115;28;20472;-59
2022/05/27 03:00:19;;;;;;;3.40;2.40;;;;;;;13.24;100.00;91454.00;5112212;28;20061;-59
2022/05/27 03:02:46;;;;;;;7.30;2.97;;;;;;;13.28;100.00;91449.63;5111890;28;20031;-59
2022/05/27 03:05:15;;;;;;;2.97;2.42;;;;;;;13.42;100.00;91446.81;5111975;28;20059;-59
2022/05/27 03:07:56;;;;;;;3.47;2.53;;;;;;;13.37;100.00;91453.09;5111964;28;20050;-59
2022/05/27 03:10:39;;;;;;;4.00;2.63;;;;;;;13.44;100.00;91458.00;5111871;28;20024;-59
2022/05/27 03:13:22;;;;;;;4.53;3.05;;;;;;;13.49;100.00;91453.28;5111864;28;20035;-59
2022/05/27 03:15:59;;;;;;;4.10;3.22;;;;;;;13.59;100.00;91460.22;5111805;28;20822;-59
2022/05/27 03:18:45;;;;;;;3.55;2.72;;;;;;;13.66;100.00;91465.06;5111772;28;20032;-59
2022/05/27 03:21:13;;;;;;;4.40;3.00;;;;;;;13.76;100.00;91459.44;5111593;28;20080;-59
2022/05/27 03:24:11;;;;;;;4.43;3.33;;;;;;;13.84;100.00;91457.84;5111685;28;20024;-59
2022/05/27 03:27:04;;;;;;;6.10;2.22;;;;;;;14.03;100.00;91453.72;5111762;28;20024;-60
2022/05/27 03:29:43;;;;;;;9.48;5.25;;;;;;;14.21;100.00;91464.44;5111470;28;20401;-60
2022/05/27 03:32:35;;;;;;;5.70;2.70;;;;;;;14.50;100.00;91456.53;5111792;28;20059;-60
2022/05/27 03:35:22;;;;;;;4.63;2.47;;;;;;;14.62;100.00;91459.34;5112064;28;20064;-60
2022/05/27 03:38:02;;;;;;;3.40;2.88;;;;;;;14.72;100.00;91468.13;5111648;28;20504;-60
2022/05/27 03:40:37;;;;;;;5.25;3.17;;;;;;;14.86;100.00;91458.00;5111428;28;20024;-59
2022/05/27 03:43:03;;;;;;;4.70;3.20;;;;;;;14.93;100.00;91463.63;5111682;28;20031;-59
2022/05/27 03:45:29;;;;;;;5.25;3.35;;;;;;;14.99;100.00;91451.66;5111725;28;20103;-60
2022/05/27 03:47:54;;;;;;;5.03;3.30;;;;;;;15.22;100.00;91454.84;5111427;28;20497;-59
2022/05/27 03:50:24;;;;;;;3.53;2.75;;;;;;;15.29;100.00;91453.22;5111400;28;20501;-60
2022/05/27 03:52:52;;;;;;;6.20;2.67;;;;;;;15.44;100.00;91461.81;5111403;28;20028;-60
2022/05/27 03:55:22;;;;;;;5.00;3.40;;;;;;;15.49;100.00;91467.00;5111362;28;20032;-60
2022/05/27 03:57:48;;;;;;;3.22;2.90;;;;;;;15.57;99.43;91456.19;5242045;22;20494;-67
2022/05/27 04:00:15;;;;;;;3.25;2.83;;;;;;;15.60;98.45;91451.31;5091219;28;20036;-70
2022/05/27 04:02:41;;;;;;;3.22;2.47;;;;;;;15.68;98.19;91456.66;5090924;28;20020;-70
2022/05/27 04:05:08;;;;;;;6.60;3.42;;;;;;;15.78;96.99;91460.81;5090918;28;20039;-69
2022/05/27 04:07:34;;;;;;;5.55;3.25;;;;;;;15.79;95.48;91449.78;5090894;28;20028;-68
2022/05/27 04:09:59;;;;;;;5.65;3.42;;;;;;;15.83;94.52;91453.38;5090845;28;20028;-68
2022/05/27 04:12:25;;;;;;;3.78;2.30;;;;;;;15.99;92.85;91452.78;5090838;28;20028;-69
2022/05/27 04:14:52;;;;;;;3.00;2.67;;;;;;;16.11;91.77;91453.63;5090761;28;20111;-68
2022/05/27 04:17:33;;;;;;;7.10;2.95;;;;;;;15.91;93.83;91445.56;5090669;28;20110;-72
2022/05/27 04:20:00;;;;;;;5.63;3.03;;;;;;;16.23;92.81;91460.16;5090756;28;20028;-68
2022/05/27 04:22:26;;;;;;;4.32;2.95;;;;;;;16.41;92.80;91448.13;5090442;28;20028;-69
2022/05/27 04:24:51;;;;;;;5.13;2.90;;;;;;;16.54;92.31;91455.13;5090715;28;20028;-69
2022/05/27 04:27:19;;;;;;;4.22;3.42;;;;;;;16.55;92.82;91451.31;5090639;28;20067;-68
2022/05/27 04:29:48;;;;;;;4.85;3.03;;;;;;;16.67;93.16;91447.91;5090652;28;20088;-69
2022/05/27 04:32:14;;;;;;;4.63;3.15;;;;;;;16.62;93.22;91443.50;5090535;28;20035;-69
2022/05/27 04:34:41;;;;;;;6.13;2.85;;;;;;;16.67;93.61;91446.00;5090600;28;20443;-68
2022/05/27 04:37:07;;;;;;;4.25;2.90;;;;;;;16.83;92.47;91446.16;5090420;28;20039;-68
2022/05/27 04:39:34;;;;;;;3.65;2.95;;;;;;;16.76;91.29;91443.25;5092344;28;20055;-68
2022/05/27 04:42:00;;;;;;;4.60;2.50;;;;;;;16.79;91.41;91445.25;5094118;28;20023;-68
2022/05/27 04:44:26;;;;;;;5.75;2.95;;;;;;;16.88;92.22;91440.53;5094222;28;20444;-69
2022/05/27 04:46:51;;;;;;;3.10;2.55;;;;;;;16.98;94.78;91442.81;5094066;28;20042;-69
2022/05/27 04:52:02;;;;;;;3.67;2.95;;;;;;;16.98;91.04;91433.97;5094334;28;20039;-72
2022/05/27 04:54:27;;;;;;;4.63;2.90;;;;;;;17.28;88.79;91429.16;5093974;28;20113;-68
2022/05/27 04:56:54;;;;;;;5.63;3.30;;;;;;;17.50;87.24;91434.06;5093761;28;20067;-68
2022/05/27 04:59:20;;;;;;;6.30;3.08;;;;;;;17.58;83.81;91437.75;5093862;28;20501;-68
2022/05/27 05:01:46;;;;;;;5.28;2.70;;;;;;;17.58;82.80;91441.25;5093785;28;20024;-71
2022/05/27 05:04:12;;;;;;;3.63;2.92;;;;;;;17.53;82.84;91428.03;5093806;28;20028;-68
2022/05/27 05:06:37;;;;;;;5.10;3.10;;;;;;;17.70;83.03;91437.78;5093703;28;20121;-68
2022/05/27 05:09:04;;;;;;;5.07;2.78;;;;;;;17.94;82.37;91431.53;5093595;28;20036;-68
2022/05/27 05:11:31;;;;;;;4.72;3.03;;;;;;;17.86;82.68;91422.50;5093618;28;20039;-68
2022/05/27 05:13:56;;;;;;;5.35;3.45;;;;;;;18.17;84.13;91440.69;5093581;28;20028;-68
2022/05/27 05:16:21;;;;;;;5.78;3.10;;;;;;;18.57;80.32;91437.16;5075265;28;20425;-70
2022/05/27 05:18:47;;;;;;;5.25;2.72;;;;;;;18.87;77.79;91434.88;5093433;28;20036;-69
2022/05/27 05:21:13;;;;;;;4.95;3.30;;;;;;;19.10;76.54;91435.09;5093232;28;20103;-69
2022/05/27 05:23:38;;;;;;;5.30;2.45;;;;;;;19.38;73.07;91437.66;5093317;28;20412;-70
2022/05/27 05:26:04;;;;;;;4.82;2.40;;;;;;;19.26;71.57;91443.16;5093322;28;20032;-69
2022/05/27 05:28:30;;;;;;;6.38;3.00;;;;;;;19.32;71.95;91431.75;5093079;28;20539;-68
2022/05/27 05:30:55;;;;;;;5.57;3.25;;;;;;;19.76;72.31;91437.03;5093208;28;20042;-68
2022/05/27 05:33:20;;;;;;;4.32;2.83;;;;;;;20.46;68.67;91434.28;5093027;28;20052;-69
2022/05/27 05:35:46;;;;;;;5.57;3.47;;;;;;;22.83;64.13;91437.56;5093068;28;20459;-69
2022/05/27 05:38:12;;;;;;;5.72;3.20;;;;;;;25.52;53.69;91434.97;5074746;28;20032;-69
2022/05/27 05:40:39;;;;;;;4.20;2.53;;;;;;;27.17;48.95;91438.19;5093032;28;20107;-69
2022/05/27 05:43:04;;;;;;;5.75;3.30;;;;;;;28.61;46.37;91430.03;5092751;28;20032;-69
2022/05/27 05:45:29;;;;;;;8.27;3.83;;;;;;;30.35;44.48;91435.06;5092895;28;20024;-68
2022/05/27 05:47:55;;;;;;;6.18;3.97;;;;;;;30.75;43.93;91439.88;5092886;28;20455;-73
2022/05/27 05:50:20;;;;;;;7.20;4.40;;;;;;;31.13;42.94;91438.34;5092851;28;20042;-73
2022/05/27 05:52:46;;;;;;;4.50;3.38;;;;;;;31.50;42.67;91436.41;5092814;28;20128;-73
2022/05/27 05:55:15;;;;;;;5.43;4.07;;;;;;;32.16;41.81;91444.31;5092662;28;20032;-72
2022/05/27 05:57:42;;;;;;;7.03;4.00;;;;;;;31.55;41.71;91433.91;5092174;28;20048;-72
2022/05/27 06:00:10;;;;;;;4.25;3.55;;;;;;;32.03;40.85;91443.44;5092485;28;20078;-73
2022/05/27 06:02:36;;;;;;;6.07;3.83;;;;;;;31.95;41.03;91441.31;5092696;28;20032;-73
2022/05/27 06:05:03;;;;;;;4.40;3.35;;;;;;;31.86;41.72;91436.41;5092584;28;20051;-67
2022/05/27 06:07:30;;;;;;;4.70;3.78;;;;;;;32.73;40.43;91436.63;5092325;28;20047;-74
2022/05/27 06:09:56;;;;;;;7.57;3.67;;;;;;;33.13;40.23;91445.38;5092409;28;20084;-72
2022/05/27 06:12:23;;;;;;;5.35;4.18;;;;;;;31.02;41.90;91437.75;5092518;28;20103;-71
2022/05/27 06:14:50;;;;;;;5.18;3.72;;;;;;;30.29;43.06;91435.97;5092380;28;20032;-72
2022/05/27 06:17:16;;;;;;;5.75;3.75;;;;;;;29.16;45.02;91439.16;5092532;28;20024;-72
2022/05/27 06:19:41;;;;;;;5.35;3.55;;;;;;;28.09;47.01;91434.81;5092123;28;20028;-72
2022/05/27 06:22:07;;;;;;;5.25;3.72;;;;;;;27.13;50.16;91438.19;5092238;28;20477;-74
2022/05/27 06:24:33;;;;;;;7.68;4.10;;;;;;;28.34;47.02;91434.59;5092307;28;20028;-74
2022/05/27 06:26:58;;;;;;;8.15;3.72;;;;;;;29.18;45.92;91442.28;5092076;28;20132;-75
2022/05/27 06:34:53;;;;;;;9.13;4.28;;;;;;;29.54;45.69;91433.63;5060396;28;20052;-73
2022/05/27 06:37:21;;;;;;;8.18;3.42;;;;;;;30.93;43.14;91443.84;5091973;28;20031;-72
2022/05/27 06:39:47;;;;;;;5.88;4.88;;;;;;;30.55;44.40;91439.81;5092286;28;20024;-73
2022/05/27 06:42:14;;;;;;;4.63;3.50;;;;;;;32.11;41.49;91438.56;5091875;28;20028;-71
2022/05/27 06:44:40;;;;;;;5.97;3.80;;;;;;;30.96;42.12;91432.00;5091944;28;20110;-68
2022/05/27 06:47:06;;;;;;;6.55;4.38;;;;;;;29.36;45.16;91437.34;5091723;28;20099;-68
2022/05/27 06:49:32;;;;;;;3.67;3.30;;;;;;;29.26;44.98;91429.25;5091662;28;20024;-67
2022/05/27 06:51:58;;;;;;;6.07;3.63;;;;;;;28.72;45.71;91429.91;5091685;28;20028;-67
2022/05/27 06:54:24;;;;;;;6.93;3.80;;;;;;;29.05;45.43;91436.59;5091680;28;20028;-68
2022/05/27 06:56:52;;;;;;;6.93;3.50;;;;;;;28.40;46.42;91426.72;5091420;28;20028;-68
2022/05/27 06:59:19;;;;;;;5.22;3.40;;;;;;;29.81;45.28;91428.88;5091431;28;20040;-68
2022/05/27 07:01:45;;;;;;;7.00;3.25;;;;;;;30.67;43.58;91429.03;5091086;28;20115;-67
2022/05/27 07:04:11;;;;;;;4.35;3.40;;;;;;;32.89;40.66;91425.59;5091630;28;20537;-68
2022/05/27 07:06:43;;;;;;;9.88;4.30;;;;;;;33.62;38.78;91423.91;5091523;28;20024;-68
2022/05/27 07:09:13;;;;;;;5.47;3.45;;;;;;;33.64;39.01;91424.25;5091592;28;20032;-68
2022/05/27 07:11:41;;;;;;;6.47;4.13;;;;;;;33.05;40.31;91417.25;5091390;28;20024;-68
2022/05/27 07:14:07;;;;;;;5.28;3.47;;;;;;;32.47;39.79;91419.19;5091405;28;20062;-68
2022/05/27 07:16:32;;;;;;;5.72;3.33;;;;;;;33.10;39.40;91418.69;5091387;28;20020;-68
2022/05/27 07:18:58;;;;;;;5.25;3.47;;;;;;;32.28;39.99;91422.84;5091307;28;20573;-68
2022/05/27 07:21:23;;;;;;;5.95;3.55;;;;;;;34.28;37.98;91412.41;5091193;28;20042;-69
2022/05/27 07:23:53;;;;;;;7.05;3.95;;;;;;;36.59;34.74;91420.50;5091369;28;20050;-68
2022/05/27 07:26:21;;;;;;;9.02;4.80;;;;;;;38.57;33.25;91417.56;5091294;28;20020;-69
2022/05/27 07:28:46;;;;;;;9.05;4.55;;;;;;;38.96;32.57;91410.03;5091145;28;20028;-74
2022/05/27 07:31:12;;;;;;;6.22;4.57;;;;;;;37.48;33.11;91416.69;5091223;28;20409;-71
2022/05/27 07:33:37;;;;;;;7.63;4.20;;;;;;;37.86;33.12;91404.28;5091334;28;20076;-70
2022/05/27 07:36:03;;;;;;;4.78;4.28;;;;;;;37.66;33.23;91408.31;5091283;28;20050;-70
2022/05/27 07:38:28;;;;;;;4.82;3.75;;;;;;;38.90;32.94;91412.72;5091212;28;20040;-70
2022/05/27 07:40:54;;;;;;;7.40;4.05;;;;;;;41.47;29.12;91404.13;5091286;28;20024;-70
2022/05/27 07:43:19;;;;;;;8.38;3.22;;;;;;;41.04;28.02;91401.09;5091199;28;20042;-70
2022/05/27 07:45:45;;;;;;;6.45;3.10;;;;;;;41.37;27.87;91399.97;5091120;28;20027;-69
2022/05/27 07:48:11;;;;;;;6.07;3.25;;;;;;;39.86;28.77;91395.78;5091086;28;20044;-69
2022/05/27 07:50:39;;;;;;;3.67;2.80;;;;;;;38.65;29.73;91391.72;5091179;28;20103;-69
2022/05/27 07:53:04;;;;;;;3.95;2.70;;;;;;;38.92;29.78;91390.75;5091178;28;20031;-70
2022/05/27 07:55:31;;;;;;;5.00;2.90;;;;;;;39.15;30.56;91382.88;5091113;28;20016;-66
2022/05/27 07:57:56;;;;;;;4.65;2.60;;;;;;;38.56;30.36;91374.31;5090830;28;20054;-65
2022/05/27 08:00:28;;;;;;;3.85;3.45;;;;;;;39.96;29.00;91377.75;5091022;28;20400;-69
2022/05/27 08:02:54;;;;;;;3.77;3.13;;;;;;;39.81;28.81;91382.53;5072793;28;20405;-69
2022/05/27 08:05:23;;;;;;;5.20;2.65;;;;;;;38.05;30.10;91378.75;5091077;28;20320;-70
2022/05/27 08:07:49;;;;;;;6.30;3.75;;;;;;;36.36;34.15;91382.28;5090944;28;20042;-74
2022/05/27 08:10:18;;;;;;;4.65;2.95;;;;;;;36.08;33.90;91373.13;5090918;28;20032;-70
2022/05/27 08:12:44;;;;;;;4.72;2.58;;;;;;;39.26;30.98;91366.38;5091067;28;20024;-69
2022/05/27 08:15:11;;;;;;;6.97;3.88;;;;;;;37.42;33.25;91360.28;5085216;28;20037;-69
2022/05/27 08:17:37;;;;;;;9.73;3.83;;;;;;;37.84;32.56;91362.31;5074230;28;20042;-69
2022/05/27 08:20:05;;;;;;;7.00;3.10;;;;;;;38.54;32.07;91362.91;5074278;28;20032;-73
2022/05/27 08:22:30;;;;;;;3.72;2.90;;;;;;;39.11;30.92;91357.22;5073839;28;20447;-74
2022/05/27 08:24:56;;;;;;;8.75;3.67;;;;;;;40.10;29.68;91360.25;5074196;28;20063;-75
2022/05/27 08:27:21;;;;;;;4.63;2.90;;;;;;;37.06;31.56;91361.06;5074134;28;20108;-72
2022/05/27 08:29:47;;;;;;;5.32;3.35;;;;;;;36.31;33.79;91347.63;5074191;28;20063;-73
2022/05/27 08:32:13;;;;;;;3.10;2.40;;;;;;;37.54;32.32;91348.19;5074087;28;20565;-74
2022/05/27 08:40:27;;;;;;;7.47;4.07;;;;;;;36.70;32.27;91345.22;5074221;28;20043;-75
2022/05/27 08:43:02;;;;;;;3.33;2.67;;;;;;;37.37;31.08;91339.47;5073802;28;20032;-77
2022/05/27 08:45:54;;;;;;;4.53;3.22;;;;;;;37.06;32.39;91331.34;5075706;28;20032;-75
2022/05/27 08:48:22;;;;;;;4.55;2.30;;;;;;;38.16;30.80;91322.63;5073721;28;20028;-76
2022/05/27 08:50:58;;;;;;;3.67;2.80;;;;;;;39.29;29.97;91336.81;5073198;28;20032;-76
2022/05/27 08:53:43;;;;;;;5.15;2.80;;;;;;;39.14;29.44;91329.25;5073661;28;20056;-75
2022/05/27 08:59:28;;;;;;;3.50;3.00;;;;;;;37.97;30.50;91329.53;5073675;28;20529;-77
2022/05/27 09:02:02;;;;;;;7.13;2.80;;;;;;;40.51;28.52;91318.47;5073819;28;20482;-80
2022/05/27 09:04:37;;;;;;;3.60;2.53;;;;;;;40.71;27.95;91317.69;5073943;28;20028;-79
2022/05/27 09:07:41;;;;;;;3.53;2.80;;;;;;;38.43;29.12;91315.41;5074304;28;20024;-78
2022/05/27 09:10:13;;;;;;;4.60;3.20;;;;;;;37.28;29.52;91310.97;5054602;28;20028;-80
2022/05/27 09:12:45;;;;;;;5.82;2.40;;;;;;;36.00;30.89;91304.19;5075675;28;20064;-78
2022/05/27 09:15:41;;;;;;;5.03;2.67;;;;;;;37.30;29.46;91302.97;5073602;28;20052;-75
2022/05/27 09:18:26;;;;;;;3.03;2.50;;;;;;;37.71;28.78;91301.38;5073414;28;20024;-74
2022/05/27 09:21:19;;;;;;;4.22;2.50;;;;;;;35.75;31.25;91300.84;5072566;28;20498;-76
2022/05/27 09:24:09;;;;;;;5.05;2.90;;;;;;;35.38;31.55;91297.97;5073155;28;20036;-77
2022/05/27 09:27:08;;;;;;;3.88;2.65;;;;;;;36.38;30.37;91294.69;5055047;28;20028;-74
2022/05/27 09:29:48;;;;;;;5.32;2.70;;;;;;;34.45;33.34;91283.97;5029272;28;20079;-74
2022/05/27 09:32:25;;;;;;;4.35;2.75;;;;;;;34.45;33.67;91281.22;5073006;28;20099;-74
2022/05/27 09:34:53;;;;;;;6.63;2.90;;;;;;;34.29;34.35;91290.44;5054706;28;20051;-73
2022/05/27 09:37:34;;;;;;;4.68;2.97;;;;;;;35.35;32.12;91274.75;5074810;28;20036;-77
2022/05/27 09:40:05;;;;;;;5.30;2.90;;;;;;;35.94;31.06;91274.75;5077531;28;20055;-79
2022/05/27 09:42:37;;;;;;;6.57;2.80;;;;;;;37.21;29.82;91266.88;5073535;28;20482;-83
2022/05/27 09:45:03;;;;;;;4.20;2.78;;;;;;;35.84;31.28;91274.00;5074799;28;20029;-74
2022/05/27 09:47:32;;;;;;;5.13;2.75;;;;;;;36.45;30.67;91271.44;5073068;28;20090;-75
2022/05/27 09:50:04;;;;;;;8.32;3.33;;;;;;;35.47;32.49;91270.31;5072287;28;20086;-76
2022/05/27 09:52:35;;;;;;;6.75;3.47;;;;;;;35.18;33.39;91264.31;5072948;28;20116;-76
2022/05/27 09:55:14;;;;;;;3.28;2.72;;;;;;;35.40;31.56;91254.75;5072804;28;20470;-75
2022/05/27 09:57:57;;;;;;;4.95;2.85;;;;;;;35.26;31.21;91260.84;5072155;28;20040;-73
2022/05/27 10:00:55;;;;;;;4.00;2.80;;;;;;;35.27;32.42;91259.59;5072454;28;20039;-73
2022/05/27 10:03:36;;;;;;;6.05;3.13;;;;;;;35.88;30.90;91260.75;5027858;28;20509;-78
2022/05/27 10:06:15;;;;;;;7.22;2.67;;;;;;;34.99;31.97;91252.41;5071868;28;20048;-76
2022/05/27 10:08:53;;;;;;;8.52;3.08;;;;;;;35.27;33.77;91234.72;5072239;28;20031;-76
2022/05/27 10:11:20;;;;;;;5.82;3.08;;;;;;;33.00;37.65;91255.16;5071976;28;20036;-76
2022/05/27 10:14:15;;;;;;;4.32;2.97;;;;;;;33.37;36.61;91241.81;5072177;28;20033;-77
2022/05/27 10:16:42;;;;;;;2.85;2.45;;;;;;;33.81;36.25;91253.78;5072040;28;20081;-77
2022/05/27 10:19:15;;;;;;;5.63;2.72;;;;;;;33.75;35.67;91243.72;5072024;28;20139;-77
2022/05/27 10:21:53;;;;;;;6.35;2.92;;;;;;;34.23;36.46;91240.50;5072251;28;20024;-80
2022/05/27 10:24:43;;;;;;;6.40;3.63;;;;;;;34.72;36.33;91256.53;5071971;28;20040;-77
2022/05/27 10:27:08;;;;;;;3.22;2.72;;;;;;;35.70;34.69;91252.41;5059809;28;20048;-79
2022/05/27 10:29:57;;;;;;;5.78;2.45;;;;;;;33.18;37.54;91251.09;5072546;28;20032;-77
2022/05/27 10:32:42;;;;;;;3.92;2.40;;;;;;;32.73;38.21;91241.75;5071916;28;20025;-76
2022/05/27 10:35:29;;;;;;;4.72;2.72;;;;;;;33.87;37.73;91242.97;5071392;28;20028;-77
2022/05/27 10:38:21;;;;;;;8.23;2.97;;;;;;;34.20;36.10;91238.63;5070586;28;20121;-67
2022/05/27 10:41:22;;;;;;;3.65;2.40;;;;;;;34.83;35.88;91240.31;5040795;28;20040;-67
2022/05/27 10:44:18;;;;;;;5.35;2.80;;;;;;;34.92;34.71;91244.38;5071860;28;20371;-68
2022/05/27 10:46:57;;;;;;;4.00;2.38;;;;;;;32.90;37.44;91236.94;5071698;28;20060;-66
2022/05/27 10:49:54;;;;;;;5.65;3.33;;;;;;;33.28;38.00;91236.16;5071749;28;20078;-66
2022/05/27 10:52:37;;;;;;;11.32;4.68;;;;;;;34.34;36.55;91231.06;5071675;28;20055;-67
2022/05/27 10:55:36;;;;;;;5.07;2.78;;;;;;;33.62;36.51;91228.00;5071603;28;20024;-67
2022/05/27 11:03:51;;;;;;;7.75;3.17;;;;;;;32.46;38.69;91222.88;5071791;28;20147;-68
2022/05/27 11:06:31;;;;;;;3.65;2.85;;;;;;;32.77;39.03;91214.09;5071373;28;20027;-67
2022/05/27 11:09:24;;;;;;;4.07;2.30;;;;;;;33.35;37.64;91208.41;5071506;28;20027;-67
2022/05/27 11:12:13;;;;;;;2.72;2.03;;;;;;;33.26;37.68;91202.75;5071473;28;20029;-68
2022/05/27 11:15:12;;;;;;;4.20;2.67;;;;;;;32.80;38.26;91201.41;5053391;28;20410;-73
2022/05/27 11:17:59;;;;;;;4.75;2.67;;;;;;;32.34;38.75;91203.56;5071221;28;20035;-72
2022/05/27 11:20:41;;;;;;;5.00;3.15;;;;;;;34.33;36.16;91202.69;5071366;28;20485;-74
2022/05/27 11:23:31;;;;;;;4.60;2.85;;;;;;;33.75;38.00;91191.28;5071346;28;20025;-70
2022/05/27 11:26:15;;;;;;;2.45;2.17;;;;;;;34.40;35.90;91196.13;5053376;28;20028;-69
2022/05/27 11:28:59;;;;;;;3.88;2.47;;;;;;;33.82;34.14;91185.53;5071223;28;20542;-68
2022/05/27 11:31:27;;;;;;;6.13;2.95;;;;;;;34.27;35.00;91187.16;5071186;28;20111;-68
2022/05/27 11:34:05;;;;;;;5.20;2.92;;;;;;;34.38;33.70;91182.00;5071116;28;20020;-68
2022/05/27 11:36:46;;;;;;;5.97;2.97;;;;;;;34.24;35.21;91161.97;5071143;28;20028;-68
2022/05/27 11:39:47;;;;;;;4.97;2.80;;;;;;;34.91;34.47;91179.25;5071120;28;20513;-67
2022/05/27 11:42:43;;;;;;;3.33;2.22;;;;;;;33.97;34.97;91170.06;5060597;28;20043;-67
2022/05/27 11:45:21;;;;;;;4.22;2.40;;;;;;;33.70;35.54;91153.25;5071364;28;20032;-67
2022/05/27 11:48:05;;;;;;;5.60;2.67;;;;;;;34.75;34.28;91160.88;5071654;28;20094;-67
2022/05/27 11:50:49;;;;;;;3.80;2.63;;;;;;;34.66;33.47;91158.84;5075205;28;20067;-68
2022/05/27 11:53:39;;;;;;;3.70;2.33;;;;;;;33.87;33.38;91157.41;5075166;28;20044;-68
2022/05/27 11:56:48;;;;;;;7.07;2.45;;;;;;;34.19;34.39;91154.25;5075000;28;20025;-68
2022/05/27 11:59:28;;;;;;;5.53;2.70;;;;;;;33.71;33.89;91146.50;5036826;28;20044;-67
2022/05/27 12:02:06;;;;;;;3.70;2.58;;;;;;;35.13;33.07;91146.75;5074905;28;20028;-67
2022/05/27 12:04:44;;;;;;;2.95;2.05;;;;;;;33.88;34.38;91143.13;5074874;28;20099;-67
2022/05/27 12:07:47;;;;;;;5.25;3.15;;;;;;;33.71;34.36;91132.72;5074727;28;20032;-67
2022/05/27 12:10:34;;;;;;;3.67;2.13;;;;;;;33.58;34.17;91144.56;5074764;28;20024;-67
2022/05/27 12:13:34;;;;;;;2.33;2.00;;;;;;;33.19;34.35;91134.81;5074756;28;20038;-67
2022/05/27 12:16:12;;;;;;;12.38;2.88;;;;;;;32.57;35.61;91122.63;5056638;28;20394;-68
2022/05/27 12:19:00;;;;;;;3.72;2.40;;;;;;;32.04;35.54;91125.75;5074577;28;20036;-68
2022/05/27 12:21:33;;;;;;;5.82;2.72;;;;;;;33.51;35.39;91128.25;5074640;28;20058;-68
2022/05/27 12:24:25;;;;;;;4.90;2.42;;;;;;;34.43;34.06;91126.19;5074554;28;20111;-68
2022/05/27 12:26:53;;;;;;;11.02;3.47;;;;;;;33.41;34.82;91123.09;5056392;28;20504;-68
2022/05/27 12:29:21;;;;;;;5.05;3.17;;;;;;;33.41;34.81;91121.09;5074424;28;20047;-69
2022/05/27 12:31:48;;;;;;;3.47;2.83;;;;;;;33.87;34.74;91116.75;5074584;28;20076;-68